This is the latest recevied weather packets stored in our database for station/object KF3BH. If no packets are shown the sender has not sent any weather packets the latest 10 day(s).
| Time | Temp. | Humidity | Pressure | Rain* | Wind** | Luminosity | Snow |
|---|---|---|---|---|---|---|---|
| 1777308026 | 19.44° C | 42% | 1024.4 hPa | 0 mm | - | 731 W/m² | - |
| 1777306225 | 19.44° C | 50% | 1024.7 hPa | 0 mm | - | 714 W/m² | - |
| 1777305625 | 18.89° C | 55% | 1024.8 hPa | 0 mm | - | 705 W/m² | - |
| 1777305025 | 17.78° C | 58% | 1024.8 hPa | 0 mm | - | 696 W/m² | - |
| 1777302626 | 16.67° C | 66% | 1025.2 hPa | 0 mm | - | 643 W/m² | - |
| 1777298425 | 12.22° C | 77% | 1025.8 hPa | 0 mm | - | 524 W/m² | - |
| 1777293025 | 6.11° C | 96% | 1025.1 hPa | 0 mm | - | 295 W/m² | - |
| 1777291825 | 5.56° C | 96% | 1025.1 hPa | 0 mm | - | 28 W/m² | - |
| 1777289425 | 4.44° C | 95% | 1024.6 hPa | 0 mm | - | 21 W/m² | - |
| 1777288226 | 3.89° C | 95% | 1024.2 hPa | 0 mm | - | 18 W/m² | - |
| 1777287625 | 3.89° C | 95% | 1024.1 hPa | 0 mm | - | 16 W/m² | - |
| 1777273825 | 7.22° C | 85% | 1023.4 hPa | 0 mm | - | 0 W/m² | - |
| 1777267225 | 8.33° C | 82% | 1022.9 hPa | 0 mm | - | 0 W/m² | - |
| 1777266025 | 8.89° C | 80% | 1022.9 hPa | 0 mm | - | 0 W/m² | - |
| 1777263625 | 9.44° C | 78% | 1022.6 hPa | 0 mm | - | 0 W/m² | - |
| 1777253425 | 12.22° C | 67% | 1021.9 hPa | 0 mm | - | 0 W/m² | - |
| 1777252225 | 12.22° C | 67% | 1021.6 hPa | 0 mm | - | 0 W/m² | - |
| 1777248025 | 13.89° C | 58% | 1020.9 hPa | 0 mm | - | 0 W/m² | - |
| 1777242025 | 16.11° C | 50% | 1020.5 hPa | 0 mm | - | 186 W/m² | - |
| 1777240825 | 16.11° C | 52% | 1020.6 hPa | 0 mm | - | 299 W/m² | - |
| 1777239025 | 15.56° C | 52% | 1020.4 hPa | 0 mm | - | 385 W/m² | - |
| 1777233025 | 14.44° C | 58% | 1020.5 hPa | 0 mm | - | 174 W/m² | - |
* Rain latest hour (hover to see other rain measurements)
** Current wind speed in m/s (hover to see current wind gust speed)